sensor_id;sensor_type;location;lat;lon;timestamp;P1;durP1;ratioP1;P2;durP2;ratioP2
37559;SDS011;23398;50.928;7.084;2023-02-25T00:00:00;6.13;;;2.10;;
37559;SDS011;23398;50.928;7.084;2023-02-25T00:02:35;7.00;;;1.92;;
37559;SDS011;23398;50.928;7.084;2023-02-25T00:05:01;7.05;;;2.28;;
37559;SDS011;23398;50.928;7.084;2023-02-25T00:07:31;7.57;;;2.28;;
37559;SDS011;23398;50.928;7.084;2023-02-25T00:09:57;14.73;;;2.85;;
37559;SDS011;23398;50.928;7.084;2023-02-25T00:12:22;7.95;;;2.42;;
37559;SDS011;23398;50.928;7.084;2023-02-25T00:14:48;8.68;;;2.50;;
37559;SDS011;23398;50.928;7.084;2023-02-25T00:17:13;9.23;;;2.80;;
37559;SDS011;23398;50.928;7.084;2023-02-25T00:19:39;9.32;;;2.03;;
37559;SDS011;23398;50.928;7.084;2023-02-25T00:22:05;6.40;;;2.10;;
37559;SDS011;23398;50.928;7.084;2023-02-25T00:24:30;10.85;;;2.42;;
37559;SDS011;23398;50.928;7.084;2023-02-25T00:26:56;6.15;;;1.83;;
37559;SDS011;23398;50.928;7.084;2023-02-25T00:29:21;10.45;;;2.55;;
37559;SDS011;23398;50.928;7.084;2023-02-25T00:31:47;6.90;;;2.15;;
37559;SDS011;23398;50.928;7.084;2023-02-25T00:34:12;8.52;;;2.65;;
37559;SDS011;23398;50.928;7.084;2023-02-25T00:36:38;10.05;;;2.33;;
37559;SDS011;23398;50.928;7.084;2023-02-25T00:39:04;8.77;;;2.33;;
37559;SDS011;23398;50.928;7.084;2023-02-25T00:41:29;9.73;;;2.53;;
37559;SDS011;23398;50.928;7.084;2023-02-25T00:43:58;10.43;;;2.50;;
37559;SDS011;23398;50.928;7.084;2023-02-25T00:46:25;11.60;;;2.28;;
37559;SDS011;23398;50.928;7.084;2023-02-25T00:48:52;6.40;;;2.50;;
37559;SDS011;23398;50.928;7.084;2023-02-25T00:51:20;7.13;;;2.45;;
37559;SDS011;23398;50.928;7.084;2023-02-25T00:53:47;9.15;;;2.40;;
37559;SDS011;23398;50.928;7.084;2023-02-25T00:56:14;8.25;;;2.30;;
37559;SDS011;23398;50.928;7.084;2023-02-25T00:58:41;13.10;;;2.50;;
37559;SDS011;23398;50.928;7.084;2023-02-25T01:01:25;7.13;;;2.65;;
37559;SDS011;23398;50.928;7.084;2023-02-25T01:03:53;6.15;;;1.90;;
37559;SDS011;23398;50.928;7.084;2023-02-25T01:06:20;6.00;;;2.28;;
37559;SDS011;23398;50.928;7.084;2023-02-25T01:08:46;8.73;;;2.30;;
37559;SDS011;23398;50.928;7.084;2023-02-25T01:11:13;7.47;;;2.10;;
37559;SDS011;23398;50.928;7.084;2023-02-25T01:13:41;6.57;;;2.40;;
37559;SDS011;23398;50.928;7.084;2023-02-25T01:16:11;7.70;;;2.22;;
37559;SDS011;23398;50.928;7.084;2023-02-25T01:18:43;8.38;;;2.40;;
37559;SDS011;23398;50.928;7.084;2023-02-25T01:21:17;6.95;;;2.17;;
37559;SDS011;23398;50.928;7.084;2023-02-25T01:23:46;4.85;;;2.00;;
37559;SDS011;23398;50.928;7.084;2023-02-25T01:26:13;9.50;;;2.30;;
37559;SDS011;23398;50.928;7.084;2023-02-25T01:28:39;7.22;;;2.00;;
37559;SDS011;23398;50.928;7.084;2023-02-25T01:31:05;6.70;;;1.85;;
37559;SDS011;23398;50.928;7.084;2023-02-25T01:33:34;7.78;;;1.85;;
37559;SDS011;23398;50.928;7.084;2023-02-25T01:36:04;8.57;;;2.00;;
37559;SDS011;23398;50.928;7.084;2023-02-25T01:38:31;5.28;;;2.00;;
37559;SDS011;23398;50.928;7.084;2023-02-25T01:40:57;6.35;;;2.10;;
37559;SDS011;23398;50.928;7.084;2023-02-25T01:43:24;8.40;;;2.05;;
37559;SDS011;23398;50.928;7.084;2023-02-25T01:45:50;7.40;;;2.10;;
37559;SDS011;23398;50.928;7.084;2023-02-25T01:48:18;5.35;;;2.05;;
37559;SDS011;23398;50.928;7.084;2023-02-25T01:50:51;9.35;;;2.03;;
37559;SDS011;23398;50.928;7.084;2023-02-25T01:53:21;7.82;;;2.22;;
37559;SDS011;23398;50.928;7.084;2023-02-25T01:55:51;5.43;;;1.67;;
37559;SDS011;23398;50.928;7.084;2023-02-25T01:58:17;6.70;;;1.60;;
37559;SDS011;23398;50.928;7.084;2023-02-25T02:00:45;4.30;;;1.67;;
37559;SDS011;23398;50.928;7.084;2023-02-25T02:03:11;5.57;;;1.48;;
37559;SDS011;23398;50.928;7.084;2023-02-25T02:05:49;7.30;;;2.00;;
37559;SDS011;23398;50.928;7.084;2023-02-25T02:08:21;5.53;;;1.80;;
37559;SDS011;23398;50.928;7.084;2023-02-25T02:10:47;7.70;;;2.25;;
37559;SDS011;23398;50.928;7.084;2023-02-25T02:13:13;6.43;;;1.73;;
37559;SDS011;23398;50.928;7.084;2023-02-25T02:15:41;4.68;;;2.35;;
37559;SDS011;23398;50.928;7.084;2023-02-25T02:18:19;5.32;;;1.83;;
37559;SDS011;23398;50.928;7.084;2023-02-25T02:39:48;7.10;;;2.20;;
37559;SDS011;23398;50.928;7.084;2023-02-25T02:45:35;4.95;;;1.80;;
37559;SDS011;23398;50.928;7.084;2023-02-25T02:48:23;6.20;;;1.80;;
37559;SDS011;23398;50.928;7.084;2023-02-25T02:51:02;5.03;;;1.70;;
37559;SDS011;23398;50.928;7.084;2023-02-25T02:53:41;6.85;;;2.08;;
37559;SDS011;23398;50.928;7.084;2023-02-25T02:56:11;6.40;;;1.90;;
37559;SDS011;23398;50.928;7.084;2023-02-25T02:58:45;7.75;;;2.05;;
37559;SDS011;23398;50.928;7.084;2023-02-25T03:01:15;8.98;;;2.90;;
37559;SDS011;23398;50.928;7.084;2023-02-25T03:03:46;6.57;;;2.00;;
37559;SDS011;23398;50.928;7.084;2023-02-25T03:06:16;6.22;;;1.80;;
37559;SDS011;23398;50.928;7.084;2023-02-25T03:08:49;5.80;;;1.92;;
37559;SDS011;23398;50.928;7.084;2023-02-25T03:11:24;5.30;;;1.77;;
37559;SDS011;23398;50.928;7.084;2023-02-25T03:13:51;10.80;;;2.50;;
37559;SDS011;23398;50.928;7.084;2023-02-25T03:16:18;5.85;;;1.80;;
37559;SDS011;23398;50.928;7.084;2023-02-25T03:18:50;6.55;;;2.00;;
37559;SDS011;23398;50.928;7.084;2023-02-25T03:21:22;5.25;;;1.75;;
37559;SDS011;23398;50.928;7.084;2023-02-25T03:23:52;5.93;;;1.92;;
37559;SDS011;23398;50.928;7.084;2023-02-25T03:26:28;4.10;;;1.80;;
37559;SDS011;23398;50.928;7.084;2023-02-25T03:28:56;6.30;;;1.83;;
37559;SDS011;23398;50.928;7.084;2023-02-25T03:31:35;4.70;;;1.67;;
37559;SDS011;23398;50.928;7.084;2023-02-25T03:36:48;7.20;;;2.10;;
37559;SDS011;23398;50.928;7.084;2023-02-25T03:39:23;8.55;;;2.13;;
37559;SDS011;23398;50.928;7.084;2023-02-25T03:41:52;5.57;;;1.70;;
37559;SDS011;23398;50.928;7.084;2023-02-25T03:44:28;7.28;;;2.00;;
37559;SDS011;23398;50.928;7.084;2023-02-25T03:46:57;8.27;;;1.95;;
37559;SDS011;23398;50.928;7.084;2023-02-25T03:49:26;7.78;;;1.90;;
37559;SDS011;23398;50.928;7.084;2023-02-25T03:51:55;8.77;;;2.13;;
37559;SDS011;23398;50.928;7.084;2023-02-25T03:54:23;7.20;;;1.80;;
37559;SDS011;23398;50.928;7.084;2023-02-25T03:56:50;7.35;;;2.28;;
37559;SDS011;23398;50.928;7.084;2023-02-25T03:59:16;10.95;;;2.47;;
37559;SDS011;23398;50.928;7.084;2023-02-25T04:01:42;8.45;;;2.10;;
37559;SDS011;23398;50.928;7.084;2023-02-25T04:04:10;7.20;;;2.05;;
37559;SDS011;23398;50.928;7.084;2023-02-25T04:06:36;6.35;;;1.90;;
37559;SDS011;23398;50.928;7.084;2023-02-25T04:09:02;6.68;;;2.03;;
37559;SDS011;23398;50.928;7.084;2023-02-25T04:11:29;6.07;;;1.90;;
37559;SDS011;23398;50.928;7.084;2023-02-25T04:13:55;6.25;;;1.92;;
37559;SDS011;23398;50.928;7.084;2023-02-25T04:16:21;6.40;;;1.80;;
37559;SDS011;23398;50.928;7.084;2023-02-25T04:18:46;6.45;;;1.92;;
37559;SDS011;23398;50.928;7.084;2023-02-25T04:21:28;6.55;;;1.85;;
37559;SDS011;23398;50.928;7.084;2023-02-25T04:23:59;7.72;;;1.83;;
37559;SDS011;23398;50.928;7.084;2023-02-25T04:26:25;7.68;;;1.95;;
37559;SDS011;23398;50.928;7.084;2023-02-25T04:28:50;5.80;;;1.73;;
37559;SDS011;23398;50.928;7.084;2023-02-25T04:31:16;6.95;;;2.15;;
37559;SDS011;23398;50.928;7.084;2023-02-25T04:33:42;7.63;;;1.75;;
37559;SDS011;23398;50.928;7.084;2023-02-25T04:36:50;5.07;;;1.88;;
37559;SDS011;23398;50.928;7.084;2023-02-25T04:38:59;7.88;;;1.98;;
37559;SDS011;23398;50.928;7.084;2023-02-25T04:41:28;6.53;;;1.60;;
37559;SDS011;23398;50.928;7.084;2023-02-25T04:43:55;8.05;;;2.00;;
37559;SDS011;23398;50.928;7.084;2023-02-25T04:46:21;5.97;;;1.90;;
37559;SDS011;23398;50.928;7.084;2023-02-25T04:48:46;6.03;;;1.88;;
37559;SDS011;23398;50.928;7.084;2023-02-25T04:51:12;5.15;;;1.80;;
37559;SDS011;23398;50.928;7.084;2023-02-25T04:53:37;6.65;;;1.70;;
37559;SDS011;23398;50.928;7.084;2023-02-25T04:56:04;6.78;;;2.08;;
37559;SDS011;23398;50.928;7.084;2023-02-25T04:58:31;7.22;;;1.90;;
37559;SDS011;23398;50.928;7.084;2023-02-25T05:01:01;7.07;;;1.63;;
37559;SDS011;23398;50.928;7.084;2023-02-25T05:03:29;6.53;;;1.90;;
37559;SDS011;23398;50.928;7.084;2023-02-25T05:05:55;5.30;;;1.90;;
37559;SDS011;23398;50.928;7.084;2023-02-25T05:08:21;5.60;;;1.80;;
37559;SDS011;23398;50.928;7.084;2023-02-25T05:10:47;8.95;;;1.70;;
37559;SDS011;23398;50.928;7.084;2023-02-25T05:13:13;7.47;;;1.80;;
37559;SDS011;23398;50.928;7.084;2023-02-25T05:15:39;6.50;;;1.75;;
37559;SDS011;23398;50.928;7.084;2023-02-25T05:18:04;8.30;;;1.80;;
37559;SDS011;23398;50.928;7.084;2023-02-25T05:20:30;7.13;;;2.00;;
37559;SDS011;23398;50.928;7.084;2023-02-25T05:22:56;4.88;;;1.65;;
37559;SDS011;23398;50.928;7.084;2023-02-25T05:25:21;7.18;;;2.28;;
37559;SDS011;23398;50.928;7.084;2023-02-25T05:27:47;7.38;;;1.77;;
37559;SDS011;23398;50.928;7.084;2023-02-25T05:30:12;6.57;;;1.90;;
37559;SDS011;23398;50.928;7.084;2023-02-25T05:32:38;7.50;;;1.98;;
37559;SDS011;23398;50.928;7.084;2023-02-25T05:35:05;5.70;;;1.60;;
37559;SDS011;23398;50.928;7.084;2023-02-25T05:37:35;6.13;;;1.60;;
37559;SDS011;23398;50.928;7.084;2023-02-25T05:40:01;6.45;;;1.65;;
37559;SDS011;23398;50.928;7.084;2023-02-25T05:42:28;10.57;;;1.80;;
37559;SDS011;23398;50.928;7.084;2023-02-25T05:44:53;9.15;;;2.20;;
37559;SDS011;23398;50.928;7.084;2023-02-25T05:47:19;5.40;;;2.05;;
37559;SDS011;23398;50.928;7.084;2023-02-25T05:49:45;6.50;;;1.95;;
37559;SDS011;23398;50.928;7.084;2023-02-25T05:52:11;8.77;;;1.83;;
37559;SDS011;23398;50.928;7.084;2023-02-25T05:54:38;7.53;;;2.00;;
37559;SDS011;23398;50.928;7.084;2023-02-25T05:57:03;8.02;;;1.92;;
37559;SDS011;23398;50.928;7.084;2023-02-25T05:59:30;8.85;;;2.53;;
37559;SDS011;23398;50.928;7.084;2023-02-25T06:01:55;8.18;;;2.78;;
37559;SDS011;23398;50.928;7.084;2023-02-25T06:04:21;7.18;;;2.17;;
37559;SDS011;23398;50.928;7.084;2023-02-25T06:06:47;7.30;;;2.63;;
37559;SDS011;23398;50.928;7.084;2023-02-25T06:09:14;12.52;;;3.38;;
37559;SDS011;23398;50.928;7.084;2023-02-25T06:11:42;7.68;;;1.95;;
37559;SDS011;23398;50.928;7.084;2023-02-25T06:14:09;6.53;;;1.88;;
37559;SDS011;23398;50.928;7.084;2023-02-25T06:16:36;5.38;;;1.63;;
37559;SDS011;23398;50.928;7.084;2023-02-25T06:19:03;5.18;;;1.58;;
37559;SDS011;23398;50.928;7.084;2023-02-25T06:21:30;5.95;;;1.73;;
37559;SDS011;23398;50.928;7.084;2023-02-25T06:23:58;5.93;;;1.80;;
37559;SDS011;23398;50.928;7.084;2023-02-25T06:26:24;8.18;;;1.88;;
37559;SDS011;23398;50.928;7.084;2023-02-25T06:28:50;5.63;;;1.75;;
37559;SDS011;23398;50.928;7.084;2023-02-25T06:31:17;9.18;;;2.00;;
37559;SDS011;23398;50.928;7.084;2023-02-25T06:33:44;9.07;;;2.20;;
37559;SDS011;23398;50.928;7.084;2023-02-25T06:36:10;5.20;;;1.58;;
37559;SDS011;23398;50.928;7.084;2023-02-25T06:38:37;9.80;;;2.40;;
37559;SDS011;23398;50.928;7.084;2023-02-25T06:41:04;6.43;;;2.35;;
37559;SDS011;23398;50.928;7.084;2023-02-25T06:43:31;7.32;;;2.33;;
37559;SDS011;23398;50.928;7.084;2023-02-25T06:45:56;7.18;;;2.00;;
37559;SDS011;23398;50.928;7.084;2023-02-25T06:48:22;8.80;;;1.90;;
37559;SDS011;23398;50.928;7.084;2023-02-25T06:50:47;8.20;;;2.05;;
37559;SDS011;23398;50.928;7.084;2023-02-25T06:53:13;7.32;;;1.98;;
37559;SDS011;23398;50.928;7.084;2023-02-25T06:55:39;9.80;;;2.00;;
37559;SDS011;23398;50.928;7.084;2023-02-25T06:58:05;9.50;;;2.15;;
37559;SDS011;23398;50.928;7.084;2023-02-25T07:00:30;7.75;;;1.88;;
37559;SDS011;23398;50.928;7.084;2023-02-25T07:02:56;6.82;;;1.75;;
37559;SDS011;23398;50.928;7.084;2023-02-25T07:05:22;7.85;;;2.15;;
37559;SDS011;23398;50.928;7.084;2023-02-25T07:07:48;9.20;;;1.90;;
37559;SDS011;23398;50.928;7.084;2023-02-25T07:10:13;8.10;;;1.90;;
37559;SDS011;23398;50.928;7.084;2023-02-25T07:12:39;6.63;;;1.80;;
37559;SDS011;23398;50.928;7.084;2023-02-25T07:15:04;8.55;;;2.00;;
37559;SDS011;23398;50.928;7.084;2023-02-25T07:17:31;9.13;;;1.90;;
37559;SDS011;23398;50.928;7.084;2023-02-25T07:19:56;6.22;;;2.08;;
37559;SDS011;23398;50.928;7.084;2023-02-25T07:22:22;6.07;;;2.30;;
37559;SDS011;23398;50.928;7.084;2023-02-25T07:24:47;8.38;;;2.70;;
37559;SDS011;23398;50.928;7.084;2023-02-25T07:27:13;8.93;;;2.42;;
37559;SDS011;23398;50.928;7.084;2023-02-25T07:29:39;6.30;;;1.88;;
37559;SDS011;23398;50.928;7.084;2023-02-25T07:32:05;6.78;;;2.03;;
37559;SDS011;23398;50.928;7.084;2023-02-25T07:34:33;5.18;;;1.77;;
37559;SDS011;23398;50.928;7.084;2023-02-25T07:36:59;6.30;;;1.77;;
37559;SDS011;23398;50.928;7.084;2023-02-25T07:39:24;6.82;;;2.10;;
37559;SDS011;23398;50.928;7.084;2023-02-25T07:41:50;6.35;;;1.73;;
37559;SDS011;23398;50.928;7.084;2023-02-25T07:44:15;7.22;;;2.03;;
37559;SDS011;23398;50.928;7.084;2023-02-25T07:46:41;8.57;;;2.00;;
37559;SDS011;23398;50.928;7.084;2023-02-25T07:49:07;7.85;;;2.20;;
37559;SDS011;23398;50.928;7.084;2023-02-25T07:51:33;6.40;;;1.85;;
37559;SDS011;23398;50.928;7.084;2023-02-25T07:53:58;4.93;;;1.83;;
37559;SDS011;23398;50.928;7.084;2023-02-25T07:56:25;6.30;;;1.75;;
37559;SDS011;23398;50.928;7.084;2023-02-25T07:58:52;4.55;;;1.70;;
37559;SDS011;23398;50.928;7.084;2023-02-25T08:01:19;6.28;;;1.92;;
37559;SDS011;23398;50.928;7.084;2023-02-25T08:03:48;10.45;;;2.38;;
37559;SDS011;23398;50.928;7.084;2023-02-25T08:06:22;9.55;;;1.98;;
37559;SDS011;23398;50.928;7.084;2023-02-25T08:08:48;10.23;;;1.90;;
37559;SDS011;23398;50.928;7.084;2023-02-25T08:11:16;6.70;;;2.50;;
37559;SDS011;23398;50.928;7.084;2023-02-25T08:13:43;7.68;;;1.95;;
37559;SDS011;23398;50.928;7.084;2023-02-25T08:16:10;10.65;;;2.30;;
37559;SDS011;23398;50.928;7.084;2023-02-25T08:18:38;8.32;;;2.10;;
37559;SDS011;23398;50.928;7.084;2023-02-25T08:21:06;10.32;;;2.00;;
37559;SDS011;23398;50.928;7.084;2023-02-25T08:23:33;7.57;;;2.10;;
37559;SDS011;23398;50.928;7.084;2023-02-25T08:25:59;7.13;;;2.28;;
37559;SDS011;23398;50.928;7.084;2023-02-25T08:28:25;6.47;;;1.92;;
37559;SDS011;23398;50.928;7.084;2023-02-25T08:30:54;8.00;;;1.90;;
37559;SDS011;23398;50.928;7.084;2023-02-25T08:33:20;6.10;;;1.90;;
37559;SDS011;23398;50.928;7.084;2023-02-25T08:35:45;7.05;;;2.08;;
37559;SDS011;23398;50.928;7.084;2023-02-25T08:38:11;8.55;;;2.55;;
37559;SDS011;23398;50.928;7.084;2023-02-25T08:40:37;9.82;;;2.15;;
37559;SDS011;23398;50.928;7.084;2023-02-25T08:43:04;6.97;;;2.20;;
37559;SDS011;23398;50.928;7.084;2023-02-25T08:45:30;6.95;;;2.70;;
37559;SDS011;23398;50.928;7.084;2023-02-25T08:47:55;11.95;;;2.90;;
37559;SDS011;23398;50.928;7.084;2023-02-25T08:50:21;10.20;;;2.80;;
37559;SDS011;23398;50.928;7.084;2023-02-25T08:52:48;8.73;;;2.35;;
37559;SDS011;23398;50.928;7.084;2023-02-25T08:55:14;6.07;;;2.00;;
37559;SDS011;23398;50.928;7.084;2023-02-25T08:57:40;7.88;;;2.30;;
37559;SDS011;23398;50.928;7.084;2023-02-25T09:00:07;7.47;;;2.00;;
37559;SDS011;23398;50.928;7.084;2023-02-25T09:02:36;5.68;;;1.98;;
37559;SDS011;23398;50.928;7.084;2023-02-25T09:05:02;7.90;;;2.05;;
37559;SDS011;23398;50.928;7.084;2023-02-25T09:07:28;8.60;;;2.45;;
37559;SDS011;23398;50.928;7.084;2023-02-25T09:09:54;6.70;;;1.90;;
37559;SDS011;23398;50.928;7.084;2023-02-25T09:12:20;7.10;;;2.00;;
37559;SDS011;23398;50.928;7.084;2023-02-25T09:14:46;9.27;;;2.15;;
37559;SDS011;23398;50.928;7.084;2023-02-25T09:17:11;5.90;;;2.10;;
37559;SDS011;23398;50.928;7.084;2023-02-25T09:19:37;7.60;;;2.28;;
37559;SDS011;23398;50.928;7.084;2023-02-25T09:22:04;8.05;;;2.10;;
37559;SDS011;23398;50.928;7.084;2023-02-25T09:24:30;7.90;;;2.13;;
37559;SDS011;23398;50.928;7.084;2023-02-25T09:26:57;6.13;;;1.77;;
37559;SDS011;23398;50.928;7.084;2023-02-25T09:29:32;7.10;;;2.45;;
37559;SDS011;23398;50.928;7.084;2023-02-25T09:31:59;7.00;;;2.13;;
37559;SDS011;23398;50.928;7.084;2023-02-25T09:34:25;9.10;;;2.55;;
37559;SDS011;23398;50.928;7.084;2023-02-25T09:36:51;6.70;;;2.90;;
37559;SDS011;23398;50.928;7.084;2023-02-25T09:39:16;9.38;;;3.08;;
37559;SDS011;23398;50.928;7.084;2023-02-25T09:41:48;7.13;;;2.95;;
37559;SDS011;23398;50.928;7.084;2023-02-25T09:44:20;6.03;;;3.08;;
37559;SDS011;23398;50.928;7.084;2023-02-25T09:52:31;7.15;;;2.80;;
37559;SDS011;23398;50.928;7.084;2023-02-25T09:55:05;6.93;;;3.50;;
37559;SDS011;23398;50.928;7.084;2023-02-25T09:57:40;7.78;;;3.38;;
37559;SDS011;23398;50.928;7.084;2023-02-25T10:00:16;9.20;;;3.42;;
37559;SDS011;23398;50.928;7.084;2023-02-25T10:02:46;6.25;;;3.42;;
37559;SDS011;23398;50.928;7.084;2023-02-25T10:05:16;8.52;;;3.60;;
37559;SDS011;23398;50.928;7.084;2023-02-25T10:07:57;9.75;;;4.22;;
37559;SDS011;23398;50.928;7.084;2023-02-25T10:10:46;8.88;;;4.68;;
37559;SDS011;23398;50.928;7.084;2023-02-25T10:18:39;8.60;;;4.32;;
37559;SDS011;23398;50.928;7.084;2023-02-25T10:21:25;10.60;;;5.25;;
37559;SDS011;23398;50.928;7.084;2023-02-25T10:26:38;11.68;;;5.07;;
37559;SDS011;23398;50.928;7.084;2023-02-25T10:29:19;8.15;;;4.43;;
37559;SDS011;23398;50.928;7.084;2023-02-25T10:31:52;10.38;;;4.53;;
37559;SDS011;23398;50.928;7.084;2023-02-25T10:34:24;10.98;;;3.95;;
37559;SDS011;23398;50.928;7.084;2023-02-25T10:36:54;6.63;;;3.88;;
37559;SDS011;23398;50.928;7.084;2023-02-25T10:39:22;5.30;;;3.33;;
37559;SDS011;23398;50.928;7.084;2023-02-25T10:41:49;8.27;;;3.50;;
37559;SDS011;23398;50.928;7.084;2023-02-25T10:44:15;5.30;;;2.95;;
37559;SDS011;23398;50.928;7.084;2023-02-25T10:49:14;9.02;;;3.92;;
37559;SDS011;23398;50.928;7.084;2023-02-25T10:54:29;6.03;;;3.58;;
37559;SDS011;23398;50.928;7.084;2023-02-25T10:56:58;8.70;;;4.05;;
37559;SDS011;23398;50.928;7.084;2023-02-25T10:59:27;6.38;;;3.60;;
37559;SDS011;23398;50.928;7.084;2023-02-25T11:01:57;9.65;;;3.45;;
37559;SDS011;23398;50.928;7.084;2023-02-25T11:04:32;8.15;;;3.55;;
37559;SDS011;23398;50.928;7.084;2023-02-25T11:07:01;6.32;;;3.00;;
37559;SDS011;23398;50.928;7.084;2023-02-25T11:15:33;5.38;;;1.50;;
37559;SDS011;23398;50.928;7.084;2023-02-25T11:18:21;2.10;;;1.10;;
37559;SDS011;23398;50.928;7.084;2023-02-25T11:20:55;2.15;;;1.00;;
37559;SDS011;23398;50.928;7.084;2023-02-25T11:23:28;1.38;;;1.00;;
37559;SDS011;23398;50.928;7.084;2023-02-25T11:26:02;1.30;;;1.00;;
37559;SDS011;23398;50.928;7.084;2023-02-25T11:28:32;1.88;;;1.00;;
37559;SDS011;23398;50.928;7.084;2023-02-25T11:31:04;1.48;;;1.00;;
37559;SDS011;23398;50.928;7.084;2023-02-25T11:33:34;2.55;;;1.00;;
37559;SDS011;23398;50.928;7.084;2023-02-25T11:36:02;2.13;;;1.20;;
37559;SDS011;23398;50.928;7.084;2023-02-25T11:38:33;2.00;;;1.15;;
37559;SDS011;23398;50.928;7.084;2023-02-25T11:40:59;5.97;;;1.40;;
37559;SDS011;23398;50.928;7.084;2023-02-25T11:43:26;1.67;;;1.10;;
37559;SDS011;23398;50.928;7.084;2023-02-25T11:46:23;2.55;;;1.20;;
37559;SDS011;23398;50.928;7.084;2023-02-25T11:51:46;2.28;;;1.23;;
37559;SDS011;23398;50.928;7.084;2023-02-25T11:54:25;1.55;;;1.10;;
37559;SDS011;23398;50.928;7.084;2023-02-25T11:57:15;3.03;;;1.20;;
37559;SDS011;23398;50.928;7.084;2023-02-25T12:17:08;3.65;;;1.20;;
37559;SDS011;23398;50.928;7.084;2023-02-25T12:27:58;2.85;;;1.40;;
37559;SDS011;23398;50.928;7.084;2023-02-25T12:33:30;1.83;;;1.10;;
37559;SDS011;23398;50.928;7.084;2023-02-25T12:39:09;2.63;;;1.30;;
37559;SDS011;23398;50.928;7.084;2023-02-25T13:09:30;4.07;;;1.50;;
37559;SDS011;23398;50.928;7.084;2023-02-25T13:40:49;3.60;;;1.27;;
37559;SDS011;23398;50.928;7.084;2023-02-25T14:00:58;3.60;;;1.40;;
37559;SDS011;23398;50.928;7.084;2023-02-25T14:03:52;4.65;;;1.38;;
37559;SDS011;23398;50.928;7.084;2023-02-25T14:09:32;4.57;;;1.77;;
37559;SDS011;23398;50.928;7.084;2023-02-25T14:12:20;4.45;;;1.60;;
37559;SDS011;23398;50.928;7.084;2023-02-25T14:17:57;3.20;;;1.48;;
37559;SDS011;23398;50.928;7.084;2023-02-25T14:23:24;3.03;;;1.35;;
37559;SDS011;23398;50.928;7.084;2023-02-25T14:31:36;4.00;;;1.17;;
37559;SDS011;23398;50.928;7.084;2023-02-25T14:34:26;3.40;;;1.35;;
37559;SDS011;23398;50.928;7.084;2023-02-25T14:37:21;4.07;;;1.60;;
37559;SDS011;23398;50.928;7.084;2023-02-25T14:40:06;4.10;;;1.50;;
37559;SDS011;23398;50.928;7.084;2023-02-25T14:42:40;6.50;;;1.50;;
37559;SDS011;23398;50.928;7.084;2023-02-25T14:45:19;2.88;;;1.50;;
37559;SDS011;23398;50.928;7.084;2023-02-25T14:47:52;4.45;;;1.50;;
37559;SDS011;23398;50.928;7.084;2023-02-25T14:53:01;4.35;;;1.40;;
37559;SDS011;23398;50.928;7.084;2023-02-25T14:58:48;3.05;;;1.30;;
37559;SDS011;23398;50.928;7.084;2023-02-25T15:04:21;5.25;;;1.60;;
37559;SDS011;23398;50.928;7.084;2023-02-25T15:06:55;2.65;;;1.20;;
37559;SDS011;23398;50.928;7.084;2023-02-25T15:10:00;3.20;;;1.30;;
37559;SDS011;23398;50.928;7.084;2023-02-25T15:15:27;2.72;;;1.35;;
37559;SDS011;23398;50.928;7.084;2023-02-25T15:18:21;3.80;;;1.30;;
37559;SDS011;23398;50.928;7.084;2023-02-25T15:20:56;2.30;;;1.15;;
37559;SDS011;23398;50.928;7.084;2023-02-25T15:23:22;2.47;;;1.20;;
37559;SDS011;23398;50.928;7.084;2023-02-25T15:28:51;4.85;;;1.30;;
37559;SDS011;23398;50.928;7.084;2023-02-25T15:31:28;3.92;;;1.38;;
37559;SDS011;23398;50.928;7.084;2023-02-25T15:34:26;2.83;;;1.23;;
37559;SDS011;23398;50.928;7.084;2023-02-25T15:42:08;2.88;;;1.20;;
37559;SDS011;23398;50.928;7.084;2023-02-25T15:44:39;3.97;;;1.10;;
37559;SDS011;23398;50.928;7.084;2023-02-25T15:49:48;3.05;;;1.30;;
37559;SDS011;23398;50.928;7.084;2023-02-25T15:55:26;1.80;;;1.00;;
37559;SDS011;23398;50.928;7.084;2023-02-25T15:57:58;2.78;;;0.88;;
37559;SDS011;23398;50.928;7.084;2023-02-25T16:11:44;1.85;;;1.00;;
37559;SDS011;23398;50.928;7.084;2023-02-25T16:19:26;1.70;;;1.00;;
37559;SDS011;23398;50.928;7.084;2023-02-25T16:22:04;3.00;;;0.95;;
37559;SDS011;23398;50.928;7.084;2023-02-25T16:24:36;3.28;;;1.20;;
37559;SDS011;23398;50.928;7.084;2023-02-25T16:27:11;4.97;;;0.90;;
37559;SDS011;23398;50.928;7.084;2023-02-25T16:35:06;2.88;;;0.95;;
37559;SDS011;23398;50.928;7.084;2023-02-25T16:40:35;1.58;;;0.80;;
37559;SDS011;23398;50.928;7.084;2023-02-25T16:43:03;1.63;;;0.98;;
37559;SDS011;23398;50.928;7.084;2023-02-25T16:45:32;2.53;;;0.98;;
37559;SDS011;23398;50.928;7.084;2023-02-25T16:48:16;1.67;;;0.90;;
37559;SDS011;23398;50.928;7.084;2023-02-25T16:50:45;2.15;;;0.93;;
37559;SDS011;23398;50.928;7.084;2023-02-25T16:53:16;2.38;;;1.08;;
37559;SDS011;23398;50.928;7.084;2023-02-25T16:55:45;1.67;;;1.00;;
37559;SDS011;23398;50.928;7.084;2023-02-25T17:00:55;2.35;;;1.00;;
37559;SDS011;23398;50.928;7.084;2023-02-25T17:03:23;2.13;;;0.90;;
37559;SDS011;23398;50.928;7.084;2023-02-25T17:08:30;1.70;;;1.00;;
37559;SDS011;23398;50.928;7.084;2023-02-25T17:10:57;1.93;;;1.10;;
37559;SDS011;23398;50.928;7.084;2023-02-25T17:13:28;1.93;;;1.10;;
37559;SDS011;23398;50.928;7.084;2023-02-25T17:15:57;3.17;;;1.13;;
37559;SDS011;23398;50.928;7.084;2023-02-25T17:18:40;2.93;;;1.23;;
37559;SDS011;23398;50.928;7.084;2023-02-25T17:21:18;2.63;;;1.00;;
37559;SDS011;23398;50.928;7.084;2023-02-25T17:23:53;3.03;;;1.23;;
37559;SDS011;23398;50.928;7.084;2023-02-25T17:26:20;1.98;;;1.05;;
37559;SDS011;23398;50.928;7.084;2023-02-25T17:28:48;4.03;;;1.30;;
37559;SDS011;23398;50.928;7.084;2023-02-25T17:31:18;2.38;;;1.05;;
37559;SDS011;23398;50.928;7.084;2023-02-25T17:33:51;2.08;;;1.10;;
37559;SDS011;23398;50.928;7.084;2023-02-25T17:36:26;2.55;;;1.10;;
37559;SDS011;23398;50.928;7.084;2023-02-25T17:39:02;2.37;;;1.20;;
37559;SDS011;23398;50.928;7.084;2023-02-25T17:41:30;2.20;;;1.07;;
37559;SDS011;23398;50.928;7.084;2023-02-25T17:43:55;1.93;;;1.00;;
37559;SDS011;23398;50.928;7.084;2023-02-25T17:51:45;2.10;;;0.90;;
37559;SDS011;23398;50.928;7.084;2023-02-25T17:54:20;2.20;;;1.00;;
37559;SDS011;23398;50.928;7.084;2023-02-25T17:57:05;4.60;;;1.37;;
37559;SDS011;23398;50.928;7.084;2023-02-25T17:59:35;2.27;;;1.17;;
37559;SDS011;23398;50.928;7.084;2023-02-25T18:07:40;3.67;;;1.10;;
37559;SDS011;23398;50.928;7.084;2023-02-25T18:12:50;1.90;;;1.13;;
37559;SDS011;23398;50.928;7.084;2023-02-25T18:15:18;2.67;;;1.10;;
37559;SDS011;23398;50.928;7.084;2023-02-25T18:18:01;3.83;;;1.17;;
37559;SDS011;23398;50.928;7.084;2023-02-25T18:20:33;4.13;;;1.17;;
37559;SDS011;23398;50.928;7.084;2023-02-25T18:25:44;1.90;;;1.10;;
37559;SDS011;23398;50.928;7.084;2023-02-25T18:28:12;2.97;;;1.10;;
37559;SDS011;23398;50.928;7.084;2023-02-25T18:30:42;2.63;;;1.30;;
37559;SDS011;23398;50.928;7.084;2023-02-25T18:33:08;1.63;;;1.20;;
37559;SDS011;23398;50.928;7.084;2023-02-25T18:35:35;1.97;;;1.20;;
37559;SDS011;23398;50.928;7.084;2023-02-25T18:38:04;2.27;;;1.17;;
37559;SDS011;23398;50.928;7.084;2023-02-25T18:40:31;1.53;;;0.97;;
37559;SDS011;23398;50.928;7.084;2023-02-25T18:43:02;2.77;;;1.03;;
37559;SDS011;23398;50.928;7.084;2023-02-25T18:45:29;4.43;;;1.40;;
37559;SDS011;23398;50.928;7.084;2023-02-25T18:47:55;2.60;;;1.40;;
37559;SDS011;23398;50.928;7.084;2023-02-25T18:50:21;2.70;;;1.40;;
37559;SDS011;23398;50.928;7.084;2023-02-25T18:52:48;4.77;;;1.97;;
37559;SDS011;23398;50.928;7.084;2023-02-25T18:55:16;3.97;;;1.80;;
37559;SDS011;23398;50.928;7.084;2023-02-25T18:57:44;3.33;;;1.90;;
37559;SDS011;23398;50.928;7.084;2023-02-25T19:00:10;3.37;;;1.67;;
37559;SDS011;23398;50.928;7.084;2023-02-25T19:02:50;3.77;;;1.70;;
37559;SDS011;23398;50.928;7.084;2023-02-25T19:05:18;3.87;;;1.37;;
37559;SDS011;23398;50.928;7.084;2023-02-25T19:07:45;4.07;;;1.40;;